Time;durP1;ratioP1;P1;durP2;ratioP2;P2;SDS_P1;SDS_P2;PMS_P1;PMS_P2;Temp;Humidity;BMP_temperature;BMP_pressure;BME280_temperature;BME280_humidity;BME280_pressure;Samples;Min_cycle;Max_cycle;Signal;HPM_P1;HPM_P2
2022/06/11 00:00:26;;;;;;;5.03;2.67;;;19.40;94.10;;;;;;10503307;28;20744;-59
2022/06/11 00:05:27;;;;;;;3.78;2.20;;;19.50;94.10;;;;;;10503803;28;20055;-60
2022/06/11 00:10:28;;;;;;;3.92;2.45;;;19.50;94.10;;;;;;10507329;28;20139;-58
2022/06/11 00:15:30;;;;;;;3.20;1.95;;;19.40;94.10;;;;;;10498096;28;20028;-56
2022/06/11 00:20:32;;;;;;;5.57;2.50;;;19.40;94.20;;;;;;10497920;28;20453;-59
2022/06/11 00:25:34;;;;;;;3.95;2.15;;;19.40;94.50;;;;;;10512156;28;20032;-56
2022/06/11 00:30:35;;;;;;;4.57;2.45;;;19.30;94.20;;;;;;10507722;28;20046;-59
2022/06/11 00:35:39;;;;;;;4.80;2.17;;;19.30;94.20;;;;;;10510690;28;20020;-57
2022/06/11 00:40:42;;;;;;;4.18;2.30;;;19.30;94.30;;;;;;10506628;28;20124;-59
2022/06/11 00:46:20;;;;;;;2.47;2.25;;;19.30;94.30;;;;;;10503297;28;20024;-61
2022/06/11 00:51:22;;;;;;;;;;;19.20;94.30;;;;;;10513448;28;20054;-57
2022/06/11 00:56:28;;;;;;;6.28;2.60;;;19.10;94.40;;;;;;10509089;28;20326;-60
2022/06/11 01:01:29;;;;;;;4.65;2.72;;;19.10;94.30;;;;;;10509056;28;20036;-58
2022/06/11 01:06:46;;;;;;;3.78;2.22;;;19.10;94.30;;;;;;10509366;28;20055;-60
2022/06/11 01:12:05;;;;;;;3.75;2.38;;;19.10;94.40;;;;;;10508874;28;20474;-59
2022/06/11 01:17:32;;;;;;;3.75;2.50;;;19.10;94.40;;;;;;10510371;28;20035;-60
2022/06/11 01:23:11;;;;;;;3.33;2.35;;;19.00;94.40;;;;;;10512073;28;20044;-60
2022/06/11 01:28:24;;;;;;;2.60;2.28;;;19.00;94.40;;;;;;10505779;28;20029;-60
2022/06/11 01:33:41;;;;;;;3.38;2.45;;;19.00;94.50;;;;;;10506196;28;20055;-58
2022/06/11 01:38:56;;;;;;;5.03;2.60;;;19.00;94.50;;;;;;10506770;28;20030;-60
2022/06/11 01:44:14;;;;;;;3.67;2.65;;;19.00;94.50;;;;;;10504399;28;20914;-60
2022/06/11 01:49:20;;;;;;;4.13;2.72;;;18.90;94.50;;;;;;10509918;28;20036;-57
2022/06/11 01:54:52;;;;;;;5.00;2.90;;;18.90;94.50;;;;;;10504648;28;20061;-60
2022/06/11 02:00:01;;;;;;;5.20;2.58;;;18.90;94.50;;;;;;10507863;28;20032;-60
2022/06/11 02:05:24;;;;;;;4.15;2.53;;;18.90;94.50;;;;;;10507559;28;20036;-57
2022/06/11 02:10:45;;;;;;;3.28;2.42;;;18.80;94.50;;;;;;10509941;28;20044;-60
2022/06/11 02:15:55;;;;;;;4.78;2.78;;;18.80;94.50;;;;;;10507730;28;20059;-57
2022/06/11 02:21:08;;;;;;;2.85;2.40;;;18.80;94.60;;;;;;10509231;28;20038;-60
2022/06/11 02:26:22;;;;;;;3.35;2.50;;;18.70;94.50;;;;;;10502637;28;20087;-60
2022/06/11 02:31:28;;;;;;;4.57;2.92;;;18.70;94.60;;;;;;10511498;28;20040;-57
2022/06/11 02:36:31;;;;;;;3.30;2.75;;;18.70;94.60;;;;;;10506197;28;20028;-60
2022/06/11 02:41:34;;;;;;;3.70;2.80;;;18.70;94.60;;;;;;10506668;28;20083;-58
2022/06/11 02:46:43;;;;;;;3.85;2.75;;;18.70;94.60;;;;;;10506122;28;20503;-57
2022/06/11 02:51:46;;;;;;;4.97;2.85;;;18.70;94.60;;;;;;10505699;28;20064;-59
2022/06/11 02:56:49;;;;;;;3.83;3.00;;;18.60;94.60;;;;;;10518653;28;20103;-57
2022/06/11 03:01:52;;;;;;;4.13;3.35;;;18.60;94.60;;;;;;10503778;28;20473;-60
2022/06/11 03:06:53;;;;;;;4.32;2.92;;;18.60;94.70;;;;;;10502052;28;20044;-59
2022/06/11 03:11:54;;;;;;;4.60;2.50;;;18.60;94.70;;;;;;10506877;28;20067;-56
2022/06/11 03:16:55;;;;;;;5.43;3.17;;;18.50;94.60;;;;;;10500850;28;20035;-59
2022/06/11 03:21:56;;;;;;;3.28;2.70;;;18.50;94.70;;;;;;10495419;28;20032;-60
2022/06/11 03:26:56;;;;;;;4.28;2.97;;;18.40;94.70;;;;;;10495084;28;20031;-57
2022/06/11 03:31:57;;;;;;;3.92;2.55;;;18.50;94.70;;;;;;10498874;28;20039;-56
2022/06/11 03:36:58;;;;;;;3.88;2.50;;;18.40;94.70;;;;;;10502553;28;20555;-58
2022/06/11 03:41:59;;;;;;;3.22;2.58;;;18.40;94.60;;;;;;10499174;28;20032;-57
2022/06/11 03:46:59;;;;;;;5.07;2.80;;;18.40;94.70;;;;;;10491716;28;20025;-59
2022/06/11 03:52:00;;;;;;;4.55;2.35;;;18.40;94.60;;;;;;10497538;28;20048;-59
2022/06/11 03:57:01;;;;;;;4.57;2.30;;;18.40;94.60;;;;;;10498961;28;20028;-57
2022/06/11 04:02:03;;;;;;;4.95;2.28;;;18.30;94.60;;;;;;10512970;28;20036;-56
2022/06/11 04:07:04;;;;;;;4.15;1.90;;;18.30;94.50;;;;;;10500890;28;20067;-57
2022/06/11 04:12:09;;;;;;;4.43;2.03;;;18.30;94.50;;;;;;10507678;28;20086;-56
2022/06/11 04:17:17;;;;;;;4.25;1.95;;;18.30;94.50;;;;;;10496250;28;20107;-56
2022/06/11 04:22:19;;;;;;;5.03;2.05;;;18.30;94.40;;;;;;10498450;28;20028;-56
2022/06/11 04:27:21;;;;;;;2.78;1.92;;;18.30;94.40;;;;;;10498977;28;20025;-60
2022/06/11 04:32:23;;;;;;;7.05;1.90;;;18.30;94.40;;;;;;10494145;28;20068;-56
2022/06/11 04:37:26;;;;;;;5.75;2.08;;;18.30;94.40;;;;;;10504184;28;20024;-59
2022/06/11 04:42:28;;;;;;;3.90;2.03;;;18.20;94.30;;;;;;10498030;28;20024;-56
2022/06/11 04:47:30;;;;;;;4.30;1.92;;;18.30;94.30;;;;;;10507428;28;20117;-56
2022/06/11 04:52:31;;;;;;;4.00;1.80;;;18.20;94.30;;;;;;10513244;28;20029;-60
2022/06/11 04:57:33;;;;;;;5.47;2.05;;;18.20;94.30;;;;;;10497600;28;20025;-58
2022/06/11 05:02:33;;;;;;;3.72;1.77;;;18.20;94.20;;;;;;10493295;28;20112;-58
2022/06/11 05:07:34;;;;;;;2.33;1.70;;;18.20;94.20;;;;;;10497402;28;20036;-56
2022/06/11 05:12:35;;;;;;;3.50;1.80;;;18.20;94.20;;;;;;10496828;28;20036;-57
2022/06/11 05:17:36;;;;;;;3.28;1.77;;;18.20;94.20;;;;;;10499334;28;20035;-57
2022/06/11 05:22:38;;;;;;;2.70;1.70;;;18.20;94.20;;;;;;10508466;28;20396;-56
2022/06/11 05:27:40;;;;;;;2.70;1.90;;;18.20;94.20;;;;;;10505715;28;20013;-57
2022/06/11 05:32:42;;;;;;;3.45;1.60;;;18.20;94.20;;;;;;10508080;28;20624;-59
2022/06/11 05:37:42;;;;;;;2.40;1.60;;;18.20;94.10;;;;;;10511865;28;20373;-59
2022/06/11 05:42:47;;;;;;;3.42;1.85;;;18.20;94.20;;;;;;10503131;28;20021;-56
2022/06/11 05:47:50;;;;;;;3.22;1.63;;;18.20;94.10;;;;;;10499821;28;20054;-56
2022/06/11 05:52:53;;;;;;;5.40;2.00;;;18.20;94.10;;;;;;10515944;28;20235;-60
2022/06/11 05:57:56;;;;;;;6.28;2.30;;;18.20;94.10;;;;;;10504789;28;20052;-56
2022/06/11 06:02:57;;;;;;;3.83;1.50;;;18.20;94.10;;;;;;10509103;28;20048;-56
2022/06/11 06:07:58;;;;;;;2.28;1.55;;;18.20;94.10;;;;;;10502935;28;20060;-60
2022/06/11 06:12:58;;;;;;;4.78;2.10;;;18.20;94.10;;;;;;10505550;28;20036;-56
2022/06/11 06:17:59;;;;;;;4.60;1.70;;;18.20;94.10;;;;;;10512672;28;20491;-56
2022/06/11 06:23:00;;;;;;;6.07;1.60;;;18.20;94.10;;;;;;10499079;28;20036;-57
2022/06/11 06:28:00;;;;;;;4.88;1.42;;;18.20;94.10;;;;;;10502685;28;20036;-56
2022/06/11 06:33:01;;;;;;;4.32;1.70;;;18.20;94.00;;;;;;10510162;28;20036;-60
2022/06/11 06:38:02;;;;;;;3.63;1.45;;;18.20;94.00;;;;;;10502569;28;20186;-56
2022/06/11 06:43:03;;;;;;;3.45;1.52;;;18.20;94.00;;;;;;10510374;28;20032;-56
2022/06/11 06:48:04;;;;;;;4.90;1.60;;;18.20;94.00;;;;;;10505754;28;20040;-60
2022/06/11 06:53:05;;;;;;;5.22;1.83;;;18.30;94.00;;;;;;10506010;28;20027;-56
2022/06/11 06:58:07;;;;;;;5.18;2.00;;;18.20;93.90;;;;;;10503589;28;20058;-58
2022/06/11 07:03:08;;;;;;;6.68;2.10;;;18.30;93.90;;;;;;10504804;28;20556;-59
2022/06/11 07:08:10;;;;;;;7.25;2.40;;;18.30;93.90;;;;;;10508957;28;20044;-60
2022/06/11 07:13:10;;;;;;;6.25;1.63;;;18.30;93.90;;;;;;10504599;28;20024;-60
2022/06/11 07:18:22;;;;;;;5.25;1.65;;;18.30;93.90;;;;;;10507635;28;20476;-56
2022/06/11 07:23:35;;;;;;;4.90;1.58;;;18.40;94.00;;;;;;10507756;28;20024;-56
2022/06/11 07:28:45;;;;;;;5.28;2.00;;;18.40;93.90;;;;;;10511794;28;20040;-56
2022/06/11 07:33:48;;;;;;;5.55;1.63;;;18.40;93.90;;;;;;10510600;28;20051;-60
2022/06/11 07:38:49;;;;;;;7.68;2.08;;;18.40;93.80;;;;;;10512717;28;20032;-59
2022/06/11 07:43:50;;;;;;;6.90;1.88;;;18.50;93.80;;;;;;10507017;28;20401;-60
2022/06/11 07:48:51;;;;;;;3.60;1.70;;;18.50;93.80;;;;;;10509135;28;20032;-56
2022/06/11 07:53:51;;;;;;;9.45;2.22;;;18.50;93.70;;;;;;10494076;28;20035;-56
2022/06/11 07:58:55;;;;;;;9.82;2.35;;;18.60;93.70;;;;;;10500204;28;20753;-56
2022/06/11 08:03:56;;;;;;;8.60;2.20;;;18.60;93.70;;;;;;10503636;28;20128;-61
2022/06/11 08:08:57;;;;;;;6.10;1.88;;;18.60;93.60;;;;;;10509872;28;20737;-57
2022/06/11 08:13:57;;;;;;;6.05;1.65;;;18.70;93.60;;;;;;10514265;28;20032;-56
2022/06/11 08:18:58;;;;;;;6.85;1.75;;;18.70;93.60;;;;;;10502975;28;20040;-58
2022/06/11 08:23:59;;;;;;;12.38;2.17;;;18.70;93.50;;;;;;10497372;28;20676;-57
2022/06/11 08:29:00;;;;;;;8.73;1.83;;;18.80;93.50;;;;;;10507417;28;20097;-57
2022/06/11 08:34:00;;;;;;;9.15;1.75;;;18.80;93.50;;;;;;10508326;28;20016;-61
2022/06/11 08:39:01;;;;;;;8.77;2.10;;;18.80;93.40;;;;;;10506613;28;20028;-58
2022/06/11 08:44:08;;;;;;;12.20;2.70;;;18.80;93.40;;;;;;10506480;28;20029;-58
2022/06/11 08:49:16;;;;;;;9.10;2.10;;;18.90;93.40;;;;;;10514080;28;20032;-62
2022/06/11 08:54:22;;;;;;;9.88;2.20;;;18.90;93.30;;;;;;10514842;28;20132;-58
2022/06/11 08:59:23;;;;;;;8.40;2.15;;;19.00;93.30;;;;;;10519877;28;20027;-60
2022/06/11 09:04:43;;;;;;;12.02;2.47;;;19.00;93.30;;;;;;10513999;28;20032;-61
2022/06/11 09:10:11;;;;;;;9.75;1.95;;;19.00;93.20;;;;;;10513716;28;20047;-71
2022/06/11 09:15:19;;;;;;;6.55;2.40;;;19.00;93.10;;;;;;10513980;28;20034;-60
2022/06/11 09:20:28;;;;;;;5.30;1.50;;;19.00;93.10;;;;;;10507180;28;20043;-56
2022/06/11 09:26:10;;;;;;;10.30;2.40;;;19.10;93.00;;;;;;10505571;28;20086;-59
2022/06/11 09:31:21;;;;;;;6.32;1.90;;;19.10;93.00;;;;;;10507488;28;20050;-58
2022/06/11 09:36:37;;;;;;;9.10;2.08;;;19.10;92.80;;;;;;10509228;28;20012;-57
2022/06/11 09:42:10;;;;;;;8.82;2.10;;;19.20;92.70;;;;;;10506195;28;20032;-61
2022/06/11 09:47:30;;;;;;;4.97;1.60;;;19.20;92.60;;;;;;10506492;28;20043;-60
2022/06/11 09:52:39;;;;;;;7.68;1.95;;;19.20;92.30;;;;;;10508037;28;20047;-59
2022/06/11 09:57:43;;;;;;;12.45;2.25;;;19.30;91.20;;;;;;10506841;28;20109;-62
2022/06/11 10:03:01;;;;;;;12.20;2.17;;;19.40;90.30;;;;;;10504311;28;20386;-64
2022/06/11 10:08:28;;;;;;;9.75;2.35;;;19.50;90.20;;;;;;10507597;28;20459;-65
2022/06/11 10:13:39;;;;;;;11.88;1.98;;;19.70;87.90;;;;;;10501946;28;20521;-60
2022/06/11 10:18:40;;;;;;;5.53;1.77;;;19.80;87.80;;;;;;10501220;28;20575;-59
2022/06/11 10:23:48;;;;;;;4.72;2.03;;;19.80;87.50;;;;;;10510227;28;20542;-60
2022/06/11 10:29:03;;;;;;;7.07;2.30;;;19.80;86.10;;;;;;10498865;28;20036;-60
2022/06/11 10:34:20;;;;;;;9.40;1.75;;;19.90;85.10;;;;;;10500595;28;20023;-63
2022/06/11 10:39:23;;;;;;;8.15;2.05;;;20.00;84.10;;;;;;10497087;28;20457;-59
2022/06/11 10:44:41;;;;;;;6.82;1.70;;;20.10;84.70;;;;;;10506426;28;20036;-61
2022/06/11 10:49:44;;;;;;;11.07;2.17;;;20.20;81.90;;;;;;10503422;28;20037;-61
2022/06/11 10:54:45;;;;;;;9.70;1.90;;;20.30;83.00;;;;;;10497608;28;20509;-67
2022/06/11 11:00:00;;;;;;;8.07;1.83;;;20.30;83.10;;;;;;10504903;28;20127;-63
2022/06/11 11:05:11;;;;;;;9.18;2.30;;;20.40;82.70;;;;;;10507108;28;20407;-68
2022/06/11 11:10:35;;;;;;;6.88;1.70;;;20.50;81.90;;;;;;10506109;28;20515;-62
2022/06/11 11:15:44;;;;;;;7.00;1.95;;;20.60;79.70;;;;;;10508796;28;20032;-66
2022/06/11 11:20:47;;;;;;;10.23;2.10;;;20.70;80.80;;;;;;10497299;28;20016;-61
2022/06/11 11:26:04;;;;;;;10.23;2.03;;;20.70;81.10;;;;;;10502980;28;20082;-69
2022/06/11 11:31:15;;;;;;;10.55;2.15;;;20.80;80.20;;;;;;10500728;28;20500;-61
2022/06/11 11:36:21;;;;;;;9.65;2.17;;;20.90;81.00;;;;;;10506089;28;20369;-62
2022/06/11 11:41:25;;;;;;;7.28;2.15;;;21.00;79.80;;;;;;10508608;28;20069;-67
2022/06/11 11:46:32;;;;;;;12.48;2.70;;;21.10;80.20;;;;;;10499161;28;20049;-62
2022/06/11 11:51:33;;;;;;;9.18;2.15;;;21.20;80.00;;;;;;10508518;28;20032;-63
2022/06/11 11:56:48;;;;;;;4.70;1.80;;;21.30;79.70;;;;;;10496204;28;20511;-61
2022/06/11 12:01:51;;;;;;;7.28;2.20;;;21.40;78.00;;;;;;10505916;28;20024;-61
2022/06/11 12:06:55;;;;;;;13.50;2.10;;;21.50;79.10;;;;;;10504652;28;20048;-63
2022/06/11 12:12:18;;;;;;;10.77;2.42;;;21.60;78.70;;;;;;10503377;28;20053;-67
2022/06/11 12:17:43;;;;;;;8.73;2.05;;;21.60;78.00;;;;;;10499637;28;20093;-60
2022/06/11 12:22:50;;;;;;;8.38;2.17;;;21.70;77.00;;;;;;10516035;28;20100;-61
2022/06/11 12:27:51;;;;;;;7.70;1.85;;;21.70;77.50;;;;;;10512408;28;20084;-61
2022/06/11 12:32:53;;;;;;;10.70;2.45;;;21.80;77.40;;;;;;10509385;28;20090;-61
2022/06/11 12:38:35;;;;;;;9.82;2.15;;;21.90;77.40;;;;;;10502765;28;20469;-61
2022/06/11 12:43:51;;;;;;;8.73;2.05;;;22.00;77.10;;;;;;10467996;28;20067;-61
2022/06/11 12:49:06;;;;;;;17.83;3.47;;;22.20;76.60;;;;;;10504819;28;20542;-65
2022/06/11 12:54:55;;;;;;;9.02;2.20;;;22.20;76.40;;;;;;10508520;28;20043;-60
2022/06/11 13:00:24;;;;;;;8.88;2.10;;;22.20;76.20;;;;;;10492897;28;20218;-61
2022/06/11 13:05:58;;;;;;;8.15;2.40;;;22.40;75.00;;;;;;10512819;28;20662;-59
2022/06/11 13:11:30;;;;;;;9.10;2.30;;;22.60;75.50;;;;;;10502747;28;20109;-65
2022/06/11 13:16:52;;;;;;;12.20;2.63;;;22.70;74.80;;;;;;10516793;28;20028;-60
2022/06/11 13:22:06;;;;;;;10.52;2.25;;;22.70;75.60;;;;;;10516635;28;20579;-66
2022/06/11 13:27:10;;;;;;;11.25;2.17;;;22.90;75.50;;;;;;10515355;28;20035;-60
2022/06/11 13:32:43;;;;;;;8.65;2.65;;;23.00;75.40;;;;;;10523442;28;20382;-67
2022/06/11 13:37:53;;;;;;;9.50;2.28;;;23.20;75.40;;;;;;10482598;28;20111;-61
2022/06/11 13:43:31;;;;;;;10.00;2.33;;;23.50;74.90;;;;;;10506717;28;20036;-67
2022/06/11 13:48:46;;;;;;;9.25;2.33;;;23.60;72.50;;;;;;10515575;28;20077;-67
2022/06/11 13:59:44;;;;;;;7.60;1.88;;;23.90;73.60;;;;;;10514449;28;20135;-61
2022/06/11 14:04:50;;;;;;;13.65;2.42;;;24.00;73.20;;;;;;10513727;28;20036;-69
2022/06/11 14:10:28;;;;;;;9.98;2.75;;;24.10;73.60;;;;;;10511726;28;20363;-61
2022/06/11 14:15:49;;;;;;;11.77;2.60;;;24.20;71.80;;;;;;10513133;28;20028;-66
2022/06/11 14:20:52;;;;;;;13.82;3.70;;;24.20;72.60;;;;;;10508920;28;20095;-63
2022/06/11 14:26:12;;;;;;;9.07;2.28;;;24.30;72.70;;;;;;10509045;28;20480;-66
2022/06/11 14:31:15;;;;;;;12.73;3.50;;;24.30;72.70;;;;;;10506458;28;20064;-63
2022/06/11 14:36:19;;;;;;;6.57;1.88;;;24.50;72.20;;;;;;10509476;28;20537;-62
2022/06/11 14:41:23;;;;;;;8.95;2.33;;;24.50;71.40;;;;;;10503147;28;20485;-62
2022/06/11 14:46:33;;;;;;;8.85;2.80;;;24.60;71.70;;;;;;10508676;28;20016;-65
2022/06/11 14:51:37;;;;;;;7.43;2.35;;;24.80;71.10;;;;;;10509442;28;20051;-62
2022/06/11 14:56:55;;;;;;;9.90;2.20;;;25.00;70.80;;;;;;10500362;28;20040;-66
2022/06/11 15:02:21;;;;;;;11.35;2.75;;;24.90;70.30;;;;;;10507419;28;20775;-65
2022/06/11 15:07:40;;;;;;;10.70;2.90;;;25.00;69.60;;;;;;10501188;28;20071;-62
2022/06/11 15:13:28;;;;;;;16.13;8.20;;;25.10;69.30;;;;;;10499780;28;20051;-64
2022/06/11 15:18:43;;;;;;;9.00;3.13;;;25.10;69.20;;;;;;10462771;28;20054;-67
2022/06/11 15:23:47;;;;;;;10.48;3.60;;;25.20;70.20;;;;;;10511693;28;20020;-65
2022/06/11 15:29:11;;;;;;;13.85;2.70;;;25.30;69.70;;;;;;10508722;28;20366;-65
2022/06/11 15:34:22;;;;;;;12.60;2.65;;;25.30;68.70;;;;;;10508185;28;20447;-64
2022/06/11 15:39:24;;;;;;;11.70;2.70;;;25.20;68.80;;;;;;10507075;28;20116;-67
2022/06/11 15:44:28;;;;;;;6.70;2.13;;;25.00;69.50;;;;;;10511751;28;20059;-65
2022/06/11 15:49:39;;;;;;;13.00;3.20;;;24.90;69.50;;;;;;10506999;28;20077;-65
2022/06/11 16:00:35;;;;;;;11.77;2.72;;;24.60;69.90;;;;;;10505099;28;20609;-65
2022/06/11 16:05:46;;;;;;;7.70;2.50;;;24.40;69.90;;;;;;10499565;28;20107;-68
2022/06/11 16:10:55;;;;;;;8.60;2.80;;;24.00;71.40;;;;;;10516546;28;20044;-65
2022/06/11 16:16:02;;;;;;;12.77;2.97;;;23.80;71.70;;;;;;10514153;28;20361;-69
2022/06/11 16:21:04;;;;;;;18.23;2.77;;;23.60;72.80;;;;;;10508977;28;20039;-63
2022/06/11 16:26:06;;;;;;;12.48;3.67;;;23.30;73.50;;;;;;10499889;28;21025;-63
2022/06/11 16:31:19;;;;;;;13.48;2.70;;;23.20;73.50;;;;;;10498379;28;20093;-63
2022/06/11 16:36:37;;;;;;;9.10;2.08;;;23.10;73.40;;;;;;10504241;28;20095;-63
2022/06/11 16:47:15;;;;;;;9.30;3.10;;;23.00;73.10;;;;;;10510243;28;20035;-63
2022/06/11 16:57:45;;;;;;;8.20;2.33;;;22.60;73.40;;;;;;10503972;28;20031;-66
2022/06/11 17:03:06;;;;;;;6.78;1.98;;;22.50;73.40;;;;;;10506528;28;20021;-66
2022/06/11 17:08:07;;;;;;;9.68;2.30;;;22.50;73.20;;;;;;10504091;28;20067;-66
2022/06/11 17:13:37;;;;;;;7.30;2.10;;;22.30;73.10;;;;;;10509606;28;20132;-66
2022/06/11 17:18:41;;;;;;;11.93;2.80;;;22.20;72.40;;;;;;10518175;28;20417;-66
2022/06/11 17:23:49;;;;;;;5.18;1.58;;;22.20;73.30;;;;;;10516451;28;20024;-66
2022/06/11 17:28:52;;;;;;;9.45;2.05;;;22.10;73.10;;;;;;10516655;28;20028;-66
2022/06/11 17:33:53;;;;;;;11.40;2.17;;;22.10;72.70;;;;;;10513586;28;20063;-65
2022/06/11 17:38:58;;;;;;;7.10;2.13;;;22.00;72.60;;;;;;10512307;28;20077;-65
2022/06/11 17:43:59;;;;;;;7.63;1.67;;;22.00;72.10;;;;;;10514143;28;20056;-66
2022/06/11 17:49:00;;;;;;;7.53;1.73;;;21.90;72.40;;;;;;10511078;28;20042;-66
2022/06/11 17:54:03;;;;;;;6.95;1.85;;;21.80;72.30;;;;;;10512161;28;20442;-66
2022/06/11 17:59:03;;;;;;;10.70;2.08;;;21.70;72.50;;;;;;10510163;28;20060;-66
2022/06/11 18:04:07;;;;;;;9.63;2.00;;;21.70;72.60;;;;;;10502634;28;20031;-62
2022/06/11 18:09:07;;;;;;;9.55;1.80;;;21.60;72.40;;;;;;10513487;28;20518;-63
2022/06/11 18:14:08;;;;;;;6.68;1.77;;;21.50;72.40;;;;;;10507066;28;20034;-63
2022/06/11 18:19:10;;;;;;;5.22;1.48;;;21.40;71.90;;;;;;10504561;28;20370;-61
2022/06/11 18:29:31;;;;;;;4.35;1.40;;;21.30;71.50;;;;;;10499731;28;20474;-62
2022/06/11 18:34:31;;;;;;;4.75;1.23;;;21.20;71.10;;;;;;10502314;28;20035;-61
2022/06/11 18:39:32;;;;;;;7.20;1.95;;;21.10;71.10;;;;;;10512253;28;20028;-62
2022/06/11 18:44:34;;;;;;;6.90;1.50;;;21.00;71.20;;;;;;10500943;28;20066;-61
2022/06/11 18:49:34;;;;;;;7.43;1.60;;;20.90;71.20;;;;;;10513477;28;20040;-61
2022/06/11 18:54:35;;;;;;;4.28;1.40;;;20.80;71.60;;;;;;10503633;28;20020;-63
2022/06/11 18:59:36;;;;;;;5.03;1.60;;;20.70;72.20;;;;;;10503448;28;20039;-62
2022/06/11 19:04:36;;;;;;;6.75;1.60;;;20.60;72.70;;;;;;10505771;28;20388;-61
2022/06/11 19:09:37;;;;;;;5.65;1.38;;;20.50;72.60;;;;;;10515200;28;21452;-62
2022/06/11 19:14:38;;;;;;;3.60;1.35;;;20.40;72.90;;;;;;10503174;28;20047;-61
2022/06/11 19:19:40;;;;;;;5.22;1.60;;;20.40;73.60;;;;;;10504033;28;20049;-61
2022/06/11 19:24:42;;;;;;;5.78;1.27;;;20.30;74.10;;;;;;10510798;28;20032;-61
2022/06/11 19:29:42;;;;;;;7.35;1.30;;;20.20;74.20;;;;;;10507317;28;20145;-61
2022/06/11 19:34:43;;;;;;;7.00;1.98;;;20.10;74.50;;;;;;10504394;28;20020;-61
2022/06/11 19:39:48;;;;;;;7.88;1.38;;;20.00;74.60;;;;;;10510200;28;20086;-61
2022/06/11 19:44:57;;;;;;;5.35;1.17;;;20.00;74.80;;;;;;10508204;28;20469;-60
2022/06/11 19:49:58;;;;;;;5.70;1.60;;;19.90;74.30;;;;;;10507239;28;20397;-64
2022/06/11 19:54:59;;;;;;;4.45;1.60;;;19.80;74.50;;;;;;10510267;28;20024;-61
2022/06/11 20:00:00;;;;;;;4.45;1.60;;;19.70;75.20;;;;;;10499360;28;20032;-60
2022/06/11 20:05:01;;;;;;;9.30;1.77;;;19.70;75.80;;;;;;10497603;28;20066;-60
2022/06/11 20:10:02;;;;;;;5.47;1.60;;;19.90;75.80;;;;;;10504636;28;20044;-60
2022/06/11 20:15:04;;;;;;;6.28;1.48;;;20.00;75.60;;;;;;10499696;28;20024;-60
2022/06/11 20:20:08;;;;;;;7.93;1.63;;;20.10;75.50;;;;;;10497509;28;20527;-60
2022/06/11 20:25:09;;;;;;;6.35;2.20;;;20.20;75.50;;;;;;10495563;28;20333;-60
2022/06/11 20:30:12;;;;;;;4.40;1.40;;;20.30;75.60;;;;;;10513003;28;20052;-60
2022/06/11 20:35:13;;;;;;;4.25;1.17;;;20.30;75.60;;;;;;10507682;28;20028;-60
2022/06/11 20:40:14;;;;;;;2.33;1.30;;;20.40;75.70;;;;;;10515416;28;20032;-60
2022/06/11 20:45:21;;;;;;;6.40;1.65;;;20.40;75.80;;;;;;10503516;28;20016;-60
2022/06/11 20:50:22;;;;;;;3.75;1.15;;;20.40;75.90;;;;;;10513043;28;20093;-60
2022/06/11 20:55:23;;;;;;;3.20;1.15;;;20.40;76.00;;;;;;10512744;28;20072;-60
2022/06/11 21:00:25;;;;;;;4.53;1.20;;;20.40;76.10;;;;;;10496180;28;20078;-60
2022/06/11 21:05:26;;;;;;;4.93;1.08;;;20.40;76.20;;;;;;10505901;28;20021;-60
2022/06/11 21:10:28;;;;;;;4.55;1.60;;;20.40;76.30;;;;;;10507871;28;20051;-60
2022/06/11 21:15:28;;;;;;;4.72;1.58;;;20.40;76.40;;;;;;10508281;28;20413;-60
2022/06/11 21:20:39;;;;;;;2.70;1.20;;;20.40;76.50;;;;;;10503403;28;20036;-60
2022/06/11 21:25:42;;;;;;;3.58;0.93;;;20.30;76.60;;;;;;10505781;28;20023;-60
2022/06/11 21:30:45;;;;;;;3.53;1.10;;;20.30;76.70;;;;;;10512854;28;20043;-60
2022/06/11 21:35:46;;;;;;;3.40;1.25;;;20.30;76.80;;;;;;10513759;28;20956;-60
2022/06/11 21:46:06;;;;;;;4.82;1.60;;;20.20;77.00;;;;;;10506530;28;20025;-60
2022/06/11 21:51:06;;;;;;;2.75;1.35;;;20.20;77.10;;;;;;10507360;28;20492;-59
2022/06/11 21:56:07;;;;;;;5.70;1.88;;;20.20;77.20;;;;;;10511543;28;20055;-60
2022/06/11 22:01:12;;;;;;;3.63;1.40;;;20.20;77.50;;;;;;10508608;28;20036;-60
2022/06/11 22:06:13;;;;;;;4.13;1.45;;;20.10;77.50;;;;;;10507742;28;20389;-60
2022/06/11 22:11:20;;;;;;;3.03;1.60;;;20.10;77.60;;;;;;10512677;28;20047;-60
2022/06/11 22:16:23;;;;;;;5.55;1.60;;;20.10;77.70;;;;;;10512700;28;20472;-60
2022/06/11 22:21:37;;;;;;;2.60;1.35;;;20.10;77.80;;;;;;10516839;28;20020;-60
2022/06/11 22:26:39;;;;;;;4.82;1.50;;;20.00;77.80;;;;;;10514253;28;20038;-60
2022/06/11 22:31:40;;;;;;;5.22;1.30;;;20.00;77.80;;;;;;10515567;28;20075;-60
2022/06/11 22:36:41;;;;;;;3.92;1.23;;;20.00;77.90;;;;;;10509457;28;20020;-60
2022/06/11 22:41:42;;;;;;;5.47;1.83;;;19.90;78.00;;;;;;10512427;28;20499;-60
2022/06/11 22:46:43;;;;;;;6.45;1.70;;;19.90;78.10;;;;;;10508596;28;20495;-60
2022/06/11 22:51:44;;;;;;;5.88;1.75;;;19.90;78.10;;;;;;10512699;28;20084;-60
2022/06/11 22:56:45;;;;;;;3.70;1.33;;;19.90;78.20;;;;;;10510860;28;20055;-60
2022/06/11 23:01:45;;;;;;;3.08;1.50;;;19.80;78.20;;;;;;10497507;28;20085;-60
2022/06/11 23:06:46;;;;;;;6.57;1.52;;;19.80;78.30;;;;;;10496869;28;20288;-60
2022/06/11 23:11:47;;;;;;;3.78;1.45;;;19.70;78.30;;;;;;10507211;28;20040;-60
2022/06/11 23:16:47;;;;;;;5.38;1.48;;;19.70;78.40;;;;;;10498315;28;20128;-60
2022/06/11 23:21:48;;;;;;;5.07;1.63;;;19.70;78.40;;;;;;10506720;28;20085;-60
2022/06/11 23:26:49;;;;;;;3.38;1.30;;;19.60;78.50;;;;;;10501795;28;20030;-61
2022/06/11 23:31:50;;;;;;;4.25;1.30;;;19.60;78.60;;;;;;10505311;28;20434;-61
2022/06/11 23:36:51;;;;;;;3.05;1.10;;;19.50;78.60;;;;;;10509064;28;20027;-60
2022/06/11 23:41:51;;;;;;;6.40;1.63;;;19.50;78.60;;;;;;10503477;28;20111;-60
2022/06/11 23:46:52;;;;;;;2.83;1.45;;;19.50;78.60;;;;;;10497035;28;20124;-60
2022/06/11 23:51:53;;;;;;;4.25;1.25;;;19.50;78.70;;;;;;10506425;28;20374;-60
2022/06/11 23:56:53;;;;;;;2.30;1.20;;;19.40;78.70;;;;;;10511898;28;20030;-59
